Coeur D'Alene - Pappy Boyington Field
KCOE : now visible

Aeroporto :











RITROVATECI SU...

 
LOGIN :

Iscrizione | Disclaimer

   EN    FR    IT 

 









Sommario :    VFR   VFR Marginale   IFR   IFR Intensivo   IFR Molto Intensivo
Visibilità : 
Base nubi : 
>= 8 km
>= 3000ft
5 / 8 km
1000 / 3000 ft
1500m / 5 km
500 / 1000 ft
800 / 1500m
200 / 500 ft
< 800m
< 200 ft
Simboli :   Temporali  Nebbia  Neve Forte  Precipitazioni Forti  Vento > 20 kt






- Altitudine del aeroporto : 2320 ft


KCOE - Coeur D'Alene - Pappy Boyington Field

ULTIMO METAR :
  • 301156Z AUTO 16006KT 10SM CLR M13/M15 A3041 RMK AO2 SLP358 6//// 7//// T11281150 11122 21161 50003 FZRANO PNO $

METARs OBSOLETI :
  • 301056Z AUTO 00000KT 10SM CLR M16/M18 A3041 RMK AO2 SLP359 T11561178 FZRANO PNO $
  • 300956Z AUTO 00000KT 10SM CLR M16/M18 A3040 RMK AO2 SLP359 T11561178 FZRANO PNO $
  • 300856Z AUTO 00000KT 10SM CLR M15/M17 A3040 RMK AO2 SLP355 6//// T11501172 50001 FZRANO PNO $

TAF KCOE
Valido dal 30 a 12 ore il 31 a 12 ore UTC


301136Z 3012/3112 VRB03KT P6SM SKC
FM310100 VRB04KT P6SM SCT120 BKN150
FM310700 01007KT P6SM SCT100 BKN120 OVC150
FIR KZSE / America del Nord



MetMap, La meteo Aeronautica in un colpo d'occhio ! - Copyright ORBIFLY Dicembre 2007 - Disclaimer

ORBIFLY MET'MAP TEAM :

Programmazione e sviluppo : Alexandra Zaïnal
Concezione : Baudouin d'Aumeries
Supporto tecnico e logistico : Manuel Goepfert
Aiuto : Marc-Olivier Méhu
Aiuto per la traduzione : Arnaldo La Scala




FONTI E CREDITI :

   NOAA       Earth
Advisory